Airfield :
LOGIN :

Register | Disclaimer

   EN    FR    IT 

 










Legend :    VFR   Marginal VFR   IFR   Intensive IFR   Very Intensive IFR
Visi :
Ceiling :
>= 8 km
>= 3000ft
5 to 8 km
1000 to 3000 ft
1500m to 5 km
500 to 1000 ft
800 to 1500m
200 to 500 ft
< 800m
< 200 ft
Symbols :   Thunderstorms  Fog  Heavy snow  Heavy precipitations  Wind > 20 kt
SIGMETs :     Misc.  Thunderstorms  Icing  Turbulence  Mountain Waves  Volcanic Ashes






- Airport Elevation : 49 ft
- IATA code : SEN


EGMC - Southend

CURRENT METAR :
  • 241520Z 20013KT 9999 -SHRA FEW020 BKN041 11/08 Q0996

EXPIRED METARs :
  • 241450Z 20012KT 9999 -SHRA BKN030 13/08 Q0996
  • 241420Z 21013KT 9999 VCSH SCT028 13/08 Q0996
  • 241350Z 19018KT 170V230 9999 -SHRA SCT021 14/08 Q0996
  • 241320Z 22014KT 9999 FEW043 16/04 Q0995

TAF TAF EGMC
Valid from the 24 at 15:00 until the 25 at 00:00 UTC


241402Z 2415/2424 20010KT 9999 SCT035
TEMPO 2415/2424 7000 SHRA
PROB30
TEMPO 2415/2424 4000 +SHRA
PROB30
TEMPO 2415/2416 20016G26KT



MET'MAP, your aeronautical weather chart ! - Copyright ORBIFLY December 2007 - Disclaimer

ORBIFLY MET'MAP TEAM :

Programming & Development : Alexandra Zaïnal
Concept & original design : Baudouin d'Aumeries
Assistance for programming : Marc-Olivier Méhu
Technical & hardware support : Manuel Goepfert

Contact : metmap@orbifly.com




SOURCES & CREDITS :

   NOAA